sensor_id;sensor_type;location;lat;lon;timestamp;pressure;altitude;pressure_sealevel;temperature;humidity
47374;BME280;33123;50.118;10.272;2023-04-25T00:01:25;96932.28;;;10.10;70.11
47374;BME280;33123;50.118;10.272;2023-04-25T00:03:52;96928.88;;;10.09;69.63
47374;BME280;33123;50.118;10.272;2023-04-25T00:06:18;96929.66;;;10.10;69.99
47374;BME280;33123;50.118;10.272;2023-04-25T00:08:45;96933.06;;;10.10;69.82
47374;BME280;33123;50.118;10.272;2023-04-25T00:11:13;96935.19;;;10.13;70.40
47374;BME280;33123;50.118;10.272;2023-04-25T00:13:40;96922.81;;;10.09;70.07
47374;BME280;33123;50.118;10.272;2023-04-25T00:16:06;96925.47;;;10.14;70.12
47374;BME280;33123;50.118;10.272;2023-04-25T00:18:33;96920.19;;;10.14;69.99
47374;BME280;33123;50.118;10.272;2023-04-25T00:21:00;96920.72;;;10.11;70.20
47374;BME280;33123;50.118;10.272;2023-04-25T00:23:26;96924.41;;;10.15;70.09
47374;BME280;33123;50.118;10.272;2023-04-25T00:25:53;96886.97;;;9.87;69.91
47374;BME280;33123;50.118;10.272;2023-04-25T00:28:21;96931.00;;;10.17;70.35
47374;BME280;33123;50.118;10.272;2023-04-25T00:30:47;96930.22;;;10.12;70.57
47374;BME280;33123;50.118;10.272;2023-04-25T00:33:14;96924.41;;;10.15;70.88
47374;BME280;33123;50.118;10.272;2023-04-25T00:35:41;96931.78;;;10.18;70.62
47374;BME280;33123;50.118;10.272;2023-04-25T00:38:08;96923.34;;;10.16;70.81
47374;BME280;33123;50.118;10.272;2023-04-25T00:40:35;96924.94;;;10.17;70.87
47374;BME280;33123;50.118;10.272;2023-04-25T00:43:01;96919.16;;;10.20;70.87
47374;BME280;33123;50.118;10.272;2023-04-25T00:45:29;96917.84;;;10.22;70.69
47374;BME280;33123;50.118;10.272;2023-04-25T00:47:56;96912.84;;;10.26;70.65
47374;BME280;33123;50.118;10.272;2023-04-25T00:50:23;96913.13;;;10.29;70.76
47374;BME280;33123;50.118;10.272;2023-04-25T00:52:50;96906.53;;;10.32;70.77
47374;BME280;33123;50.118;10.272;2023-04-25T00:55:17;96898.38;;;10.34;70.93
47374;BME280;33123;50.118;10.272;2023-04-25T00:57:43;96899.41;;;10.38;70.76
47374;BME280;33123;50.118;10.272;2023-04-25T01:00:12;96892.06;;;10.40;70.81
47374;BME280;33123;50.118;10.272;2023-04-25T01:02:41;96887.03;;;10.43;70.89
47374;BME280;33123;50.118;10.272;2023-04-25T01:05:08;96889.69;;;10.43;70.90
47374;BME280;33123;50.118;10.272;2023-04-25T01:07:35;96889.69;;;10.48;70.84
47374;BME280;33123;50.118;10.272;2023-04-25T01:10:02;96861.25;;;10.30;70.69
47374;BME280;33123;50.118;10.272;2023-04-25T01:12:29;96879.69;;;10.45;70.90
47374;BME280;33123;50.118;10.272;2023-04-25T01:14:56;96891.78;;;10.56;70.61
47374;BME280;33123;50.118;10.272;2023-04-25T01:17:22;96883.63;;;10.58;70.85
47374;BME280;33123;50.118;10.272;2023-04-25T01:19:50;96893.09;;;10.59;70.97
47374;BME280;33123;50.118;10.272;2023-04-25T01:22:18;96889.66;;;10.58;70.30
47374;BME280;33123;50.118;10.272;2023-04-25T01:24:46;96892.06;;;10.55;70.25
47374;BME280;33123;50.118;10.272;2023-04-25T01:27:13;96855.47;;;10.33;70.40
47374;BME280;33123;50.118;10.272;2023-04-25T01:29:40;96882.56;;;10.54;70.72
47374;BME280;33123;50.118;10.272;2023-04-25T01:32:07;96881.78;;;10.53;70.21
47374;BME280;33123;50.118;10.272;2023-04-25T01:34:34;96880.97;;;10.53;70.77
47374;BME280;33123;50.118;10.272;2023-04-25T01:37:01;96881.78;;;10.43;71.30
47374;BME280;33123;50.118;10.272;2023-04-25T01:39:29;96889.16;;;10.41;71.41
47374;BME280;33123;50.118;10.272;2023-04-25T01:41:56;96881.53;;;10.40;71.91
47374;BME280;33123;50.118;10.272;2023-04-25T01:44:23;96889.69;;;10.38;72.24
47374;BME280;33123;50.118;10.272;2023-04-25T01:46:49;96880.19;;;10.37;72.50
47374;BME280;33123;50.118;10.272;2023-04-25T01:49:16;96887.59;;;10.35;72.52
47374;BME280;33123;50.118;10.272;2023-04-25T01:51:43;96878.91;;;10.35;72.52
47374;BME280;33123;50.118;10.272;2023-04-25T01:54:10;96870.72;;;10.26;72.60
47374;BME280;33123;50.118;10.272;2023-04-25T01:56:39;96842.53;;;10.06;72.85
47374;BME280;33123;50.118;10.272;2023-04-25T01:59:06;96880.19;;;10.32;73.07
47374;BME280;33123;50.118;10.272;2023-04-25T02:01:32;96879.16;;;10.28;73.16
47374;BME280;33123;50.118;10.272;2023-04-25T02:03:59;96879.94;;;10.23;73.58
47374;BME280;33123;50.118;10.272;2023-04-25T02:06:26;96876.22;;;10.19;73.95
47374;BME280;33123;50.118;10.272;2023-04-25T02:08:52;96871.75;;;10.10;74.76
47374;BME280;33123;50.118;10.272;2023-04-25T02:11:19;96883.06;;;10.15;74.85
47374;BME280;33123;50.118;10.272;2023-04-25T02:13:47;96879.91;;;10.03;75.25
47374;BME280;33123;50.118;10.272;2023-04-25T02:16:13;96877.28;;;10.08;75.44
47374;BME280;33123;50.118;10.272;2023-04-25T02:18:40;96881.47;;;10.09;75.67
47374;BME280;33123;50.118;10.272;2023-04-25T02:21:06;96880.69;;;9.83;77.26
47374;BME280;33123;50.118;10.272;2023-04-25T02:23:33;96873.34;;;10.00;76.83
47374;BME280;33123;50.118;10.272;2023-04-25T02:26:00;96881.75;;;10.08;76.63
47374;BME280;33123;50.118;10.272;2023-04-25T02:28:26;96885.97;;;10.14;76.79
47374;BME280;33123;50.118;10.272;2023-04-25T02:30:54;96881.22;;;10.16;76.36
47374;BME280;33123;50.118;10.272;2023-04-25T02:33:21;96887.03;;;10.18;75.38
47374;BME280;33123;50.118;10.272;2023-04-25T02:35:48;96883.34;;;10.19;74.89
47374;BME280;33123;50.118;10.272;2023-04-25T02:38:14;96885.44;;;10.17;74.39
47374;BME280;33123;50.118;10.272;2023-04-25T02:40:41;96883.06;;;10.20;74.71
47374;BME280;33123;50.118;10.272;2023-04-25T02:43:07;96885.19;;;10.18;74.62
47374;BME280;33123;50.118;10.272;2023-04-25T02:45:34;96878.59;;;10.11;74.41
47374;BME280;33123;50.118;10.272;2023-04-25T02:48:03;96880.69;;;10.09;74.12
47374;BME280;33123;50.118;10.272;2023-04-25T02:50:30;96881.22;;;10.16;74.64
47374;BME280;33123;50.118;10.272;2023-04-25T02:52:56;96869.66;;;10.17;74.39
47374;BME280;33123;50.118;10.272;2023-04-25T02:55:23;96870.16;;;10.14;74.06
47374;BME280;33123;50.118;10.272;2023-04-25T02:57:49;96875.97;;;10.11;73.77
47374;BME280;33123;50.118;10.272;2023-04-25T03:00:16;96870.16;;;10.09;73.85
47374;BME280;33123;50.118;10.272;2023-04-25T03:02:42;96870.94;;;10.09;74.25
47374;BME280;33123;50.118;10.272;2023-04-25T03:05:10;96877.00;;;10.10;74.63
47374;BME280;33123;50.118;10.272;2023-04-25T03:07:37;96874.63;;;10.08;74.66
47374;BME280;33123;50.118;10.272;2023-04-25T03:10:06;96874.13;;;10.11;74.70
47374;BME280;33123;50.118;10.272;2023-04-25T03:12:32;96877.00;;;10.10;74.70
47374;BME280;33123;50.118;10.272;2023-04-25T03:14:59;96874.91;;;10.12;75.00
47374;BME280;33123;50.118;10.272;2023-04-25T03:17:26;96876.22;;;10.14;74.69
47374;BME280;33123;50.118;10.272;2023-04-25T03:19:53;96878.06;;;10.14;73.93
47374;BME280;33123;50.118;10.272;2023-04-25T03:22:21;96879.91;;;10.13;74.00
47374;BME280;33123;50.118;10.272;2023-04-25T03:24:48;96876.50;;;10.13;74.21
47374;BME280;33123;50.118;10.272;2023-04-25T03:27:14;96882.53;;;10.13;74.51
47374;BME280;33123;50.118;10.272;2023-04-25T03:29:41;96884.38;;;10.13;74.31
47374;BME280;33123;50.118;10.272;2023-04-25T03:32:08;96875.97;;;10.11;74.48
47374;BME280;33123;50.118;10.272;2023-04-25T03:34:34;96886.75;;;10.14;74.07
47374;BME280;33123;50.118;10.272;2023-04-25T03:37:01;96880.69;;;10.09;73.72
47374;BME280;33123;50.118;10.272;2023-04-25T03:39:29;96883.31;;;10.09;73.22
47374;BME280;33123;50.118;10.272;2023-04-25T03:41:56;96883.88;;;10.05;73.46
47374;BME280;33123;50.118;10.272;2023-04-25T03:44:22;96891.75;;;10.05;73.55
47374;BME280;33123;50.118;10.272;2023-04-25T03:46:49;96895.69;;;10.03;73.10
47374;BME280;33123;50.118;10.272;2023-04-25T03:49:16;96891.22;;;10.03;73.15
47374;BME280;33123;50.118;10.272;2023-04-25T03:51:43;96893.84;;;10.03;73.50
47374;BME280;33123;50.118;10.272;2023-04-25T03:54:09;96891.22;;;9.83;73.58
47374;BME280;33123;50.118;10.272;2023-04-25T03:56:37;96883.31;;;9.93;73.71
47374;BME280;33123;50.118;10.272;2023-04-25T03:59:04;96895.16;;;9.91;73.54
47374;BME280;33123;50.118;10.272;2023-04-25T04:01:30;96897.00;;;9.85;73.47
47374;BME280;33123;50.118;10.272;2023-04-25T04:03:57;96888.03;;;9.86;73.41
47374;BME280;33123;50.118;10.272;2023-04-25T04:06:24;96895.66;;;9.88;73.54
47374;BME280;33123;50.118;10.272;2023-04-25T04:08:50;96892.00;;;9.89;73.58
47374;BME280;33123;50.118;10.272;2023-04-25T04:11:17;96892.00;;;9.89;72.96
47374;BME280;33123;50.118;10.272;2023-04-25T04:13:45;96888.03;;;9.86;73.14
47374;BME280;33123;50.118;10.272;2023-04-25T04:16:11;96891.72;;;9.90;72.68
47374;BME280;33123;50.118;10.272;2023-04-25T04:18:38;96906.47;;;9.86;73.07
47374;BME280;33123;50.118;10.272;2023-04-25T04:21:05;96897.28;;;9.89;73.66
47374;BME280;33123;50.118;10.272;2023-04-25T04:23:31;96892.25;;;9.92;73.48
47374;BME280;33123;50.118;10.272;2023-04-25T04:25:58;96893.31;;;9.91;73.37
47374;BME280;33123;50.118;10.272;2023-04-25T04:28:26;96894.09;;;9.92;73.56
47374;BME280;33123;50.118;10.272;2023-04-25T04:30:54;96897.53;;;9.92;73.41
47374;BME280;33123;50.118;10.272;2023-04-25T04:33:21;96894.88;;;9.87;73.61
47374;BME280;33123;50.118;10.272;2023-04-25T04:35:50;96865.91;;;9.67;73.71
47374;BME280;33123;50.118;10.272;2023-04-25T04:38:18;96905.94;;;9.89;73.86
47374;BME280;33123;50.118;10.272;2023-04-25T04:40:46;96902.25;;;9.90;73.88
47374;BME280;33123;50.118;10.272;2023-04-25T04:43:13;96892.25;;;9.92;73.64
47374;BME280;33123;50.118;10.272;2023-04-25T04:45:42;96902.75;;;9.82;73.06
47374;BME280;33123;50.118;10.272;2023-04-25T04:48:11;96909.38;;;9.90;73.51
47374;BME280;33123;50.118;10.272;2023-04-25T04:50:39;96914.88;;;9.93;73.47
47374;BME280;33123;50.118;10.272;2023-04-25T04:53:07;96919.38;;;9.93;73.80
47374;BME280;33123;50.118;10.272;2023-04-25T04:55:33;96918.56;;;9.92;73.70
47374;BME280;33123;50.118;10.272;2023-04-25T04:58:00;96922.00;;;9.98;73.88
47374;BME280;33123;50.118;10.272;2023-04-25T05:00:27;96927.81;;;10.00;74.08
47374;BME280;33123;50.118;10.272;2023-04-25T05:02:54;96924.38;;;9.94;72.98
47374;BME280;33123;50.118;10.272;2023-04-25T05:05:22;96927.00;;;9.84;72.93
47374;BME280;33123;50.118;10.272;2023-04-25T05:07:49;96915.44;;;9.90;72.94
47374;BME280;33123;50.118;10.272;2023-04-25T05:10:16;96920.69;;;9.90;72.77
47374;BME280;33123;50.118;10.272;2023-04-25T05:12:43;96923.31;;;9.90;72.32
47374;BME280;33123;50.118;10.272;2023-04-25T05:15:10;96925.16;;;9.90;71.83
47374;BME280;33123;50.118;10.272;2023-04-25T05:17:36;96931.22;;;9.90;71.64
47374;BME280;33123;50.118;10.272;2023-04-25T05:20:05;96931.22;;;9.90;70.09
47374;BME280;33123;50.118;10.272;2023-04-25T05:22:33;96934.09;;;9.84;69.68
47374;BME280;33123;50.118;10.272;2023-04-25T05:25:00;96936.47;;;9.85;70.24
47374;BME280;33123;50.118;10.272;2023-04-25T05:27:26;96926.47;;;9.87;71.25
47374;BME280;33123;50.118;10.272;2023-04-25T05:29:53;96925.41;;;9.88;70.36
47374;BME280;33123;50.118;10.272;2023-04-25T05:32:20;96922.25;;;9.91;70.13
47374;BME280;33123;50.118;10.272;2023-04-25T05:34:46;96924.09;;;9.86;68.36
47374;BME280;33123;50.118;10.272;2023-04-25T05:37:13;96925.41;;;9.93;69.29
47374;BME280;33123;50.118;10.272;2023-04-25T05:39:41;96926.47;;;9.97;68.97
47374;BME280;33123;50.118;10.272;2023-04-25T05:42:07;96938.88;;;10.02;68.85
47374;BME280;33123;50.118;10.272;2023-04-25T05:44:34;96932.81;;;10.01;68.36
47374;BME280;33123;50.118;10.272;2023-04-25T05:47:01;96942.09;;;10.24;68.95
47374;BME280;33123;50.118;10.272;2023-04-25T05:49:29;96945.53;;;10.40;68.40
47374;BME280;33123;50.118;10.272;2023-04-25T05:51:56;96926.03;;;10.51;68.36
47374;BME280;33123;50.118;10.272;2023-04-25T05:54:22;96953.41;;;10.96;67.77
47374;BME280;33123;50.118;10.272;2023-04-25T05:56:51;96960.16;;;11.38;68.11
47374;BME280;33123;50.118;10.272;2023-04-25T05:59:17;96953.44;;;11.81;65.32
47374;BME280;33123;50.118;10.272;2023-04-25T06:01:44;96955.06;;;12.22;62.84
47374;BME280;33123;50.118;10.272;2023-04-25T06:04:11;96952.25;;;12.76;64.60
47374;BME280;33123;50.118;10.272;2023-04-25T06:06:38;96954.22;;;13.24;61.18
47374;BME280;33123;50.118;10.272;2023-04-25T06:09:05;96955.22;;;13.76;61.67
47374;BME280;33123;50.118;10.272;2023-04-25T06:11:31;96963.56;;;14.25;60.71
47374;BME280;33123;50.118;10.272;2023-04-25T06:14:00;96968.16;;;14.58;56.99
47374;BME280;33123;50.118;10.272;2023-04-25T06:16:26;96959.97;;;14.87;54.46
47374;BME280;33123;50.118;10.272;2023-04-25T06:18:53;96956.91;;;15.12;55.48
47374;BME280;33123;50.118;10.272;2023-04-25T06:21:19;96968.31;;;15.13;51.50
47374;BME280;33123;50.118;10.272;2023-04-25T06:23:46;96969.38;;;15.25;51.80
47374;BME280;33123;50.118;10.272;2023-04-25T06:26:13;96962.63;;;15.47;52.16
47374;BME280;33123;50.118;10.272;2023-04-25T06:28:39;96965.00;;;15.62;49.64
47374;BME280;33123;50.118;10.272;2023-04-25T06:31:07;96971.13;;;15.63;52.62
47374;BME280;33123;50.118;10.272;2023-04-25T06:33:34;96972.09;;;15.80;50.92
47374;BME280;33123;50.118;10.272;2023-04-25T06:36:00;96974.81;;;16.03;49.95
47374;BME280;33123;50.118;10.272;2023-04-25T06:38:27;96977.09;;;16.32;49.86
47374;BME280;33123;50.118;10.272;2023-04-25T06:40:54;96976.09;;;16.42;47.22
47374;BME280;33123;50.118;10.272;2023-04-25T06:43:20;96975.13;;;16.60;47.43
47374;BME280;33123;50.118;10.272;2023-04-25T06:45:47;96980.31;;;16.65;48.36
47374;BME280;33123;50.118;10.272;2023-04-25T06:48:15;96976.53;;;16.57;46.53
47374;BME280;33123;50.118;10.272;2023-04-25T06:50:41;96983.72;;;16.57;46.18
47374;BME280;33123;50.118;10.272;2023-04-25T06:53:08;96984.50;;;16.57;46.55
47374;BME280;33123;50.118;10.272;2023-04-25T06:55:36;96973.38;;;16.55;46.24
47374;BME280;33123;50.118;10.272;2023-04-25T06:58:03;96984.69;;;16.61;46.58
47374;BME280;33123;50.118;10.272;2023-04-25T07:00:30;96984.69;;;16.61;47.39
47374;BME280;33123;50.118;10.272;2023-04-25T07:02:57;96994.91;;;16.31;43.94
47374;BME280;33123;50.118;10.272;2023-04-25T07:05:25;96997.00;;;16.34;45.02
47374;BME280;33123;50.118;10.272;2023-04-25T07:07:52;96999.59;;;16.12;44.63
47374;BME280;33123;50.118;10.272;2023-04-25T07:10:18;96998.06;;;15.83;45.34
47374;BME280;33123;50.118;10.272;2023-04-25T07:12:46;96997.63;;;15.49;45.60
47374;BME280;33123;50.118;10.272;2023-04-25T07:15:13;96994.56;;;15.28;45.81
47374;BME280;33123;50.118;10.272;2023-04-25T07:17:39;96987.75;;;15.08;47.19
47374;BME280;33123;50.118;10.272;2023-04-25T07:20:07;96982.25;;;15.18;49.11
47374;BME280;33123;50.118;10.272;2023-04-25T07:22:35;96997.47;;;15.73;48.67
47374;BME280;33123;50.118;10.272;2023-04-25T07:25:02;96988.41;;;16.37;47.22
47374;BME280;33123;50.118;10.272;2023-04-25T07:27:29;96990.28;;;16.96;44.92
47374;BME280;33123;50.118;10.272;2023-04-25T07:29:56;96994.72;;;17.40;44.77
47374;BME280;33123;50.118;10.272;2023-04-25T07:32:23;97004.69;;;17.57;43.28
47374;BME280;33123;50.118;10.272;2023-04-25T07:34:49;97012.50;;;17.53;43.34
47374;BME280;33123;50.118;10.272;2023-04-25T07:37:16;97008.97;;;17.35;41.76
47374;BME280;33123;50.118;10.272;2023-04-25T07:39:45;97005.72;;;17.38;42.35
47374;BME280;33123;50.118;10.272;2023-04-25T07:42:12;97006.25;;;17.58;41.46
47374;BME280;33123;50.118;10.272;2023-04-25T07:44:38;97011.44;;;18.03;44.10
47374;BME280;33123;50.118;10.272;2023-04-25T07:47:05;97006.94;;;18.29;39.47
47374;BME280;33123;50.118;10.272;2023-04-25T07:49:33;97018.09;;;18.40;39.41
47374;BME280;33123;50.118;10.272;2023-04-25T07:52:00;97013.66;;;18.18;39.46
47374;BME280;33123;50.118;10.272;2023-04-25T07:54:27;97016.25;;;17.83;39.83
47374;BME280;33123;50.118;10.272;2023-04-25T07:56:56;97018.88;;;17.75;41.98
47374;BME280;33123;50.118;10.272;2023-04-25T07:59:23;97015.59;;;17.78;41.11
47374;BME280;33123;50.118;10.272;2023-04-25T08:01:51;97022.75;;;17.68;39.29
47374;BME280;33123;50.118;10.272;2023-04-25T08:04:18;97023.78;;;17.59;40.09
47374;BME280;33123;50.118;10.272;2023-04-25T08:06:45;97025.41;;;17.37;40.70
47374;BME280;33123;50.118;10.272;2023-04-25T08:09:12;97038.19;;;16.96;40.97
47374;BME280;33123;50.118;10.272;2023-04-25T08:11:39;97049.13;;;16.58;41.24
47374;BME280;33123;50.118;10.272;2023-04-25T08:14:08;97046.56;;;16.03;42.89
47374;BME280;33123;50.118;10.272;2023-04-25T08:16:35;97040.13;;;15.49;42.65
47374;BME280;33123;50.118;10.272;2023-04-25T08:19:02;97050.63;;;14.94;43.73
47374;BME280;33123;50.118;10.272;2023-04-25T08:21:30;97054.16;;;14.51;44.85
47374;BME280;33123;50.118;10.272;2023-04-25T08:23:58;97057.03;;;14.31;45.22
47374;BME280;33123;50.118;10.272;2023-04-25T08:26:25;97056.44;;;14.15;46.71
47374;BME280;33123;50.118;10.272;2023-04-25T08:28:52;97060.47;;;14.13;48.49
47374;BME280;33123;50.118;10.272;2023-04-25T08:31:20;97069.97;;;14.14;47.68
47374;BME280;33123;50.118;10.272;2023-04-25T08:33:47;97074.00;;;14.54;49.16
47374;BME280;33123;50.118;10.272;2023-04-25T08:36:15;97072.28;;;14.82;46.75
47374;BME280;33123;50.118;10.272;2023-04-25T08:38:42;97076.41;;;15.07;44.87
47374;BME280;33123;50.118;10.272;2023-04-25T08:41:11;97076.34;;;15.12;44.60
47374;BME280;33123;50.118;10.272;2023-04-25T08:43:42;97067.28;;;15.13;44.23
47374;BME280;33123;50.118;10.272;2023-04-25T08:46:09;97073.69;;;15.12;43.41
47374;BME280;33123;50.118;10.272;2023-04-25T08:48:40;97078.47;;;15.43;44.52
47374;BME280;33123;50.118;10.272;2023-04-25T08:51:10;97083.94;;;15.65;43.59
47374;BME280;33123;50.118;10.272;2023-04-25T08:53:42;97088.28;;;15.75;43.51
47374;BME280;33123;50.118;10.272;2023-04-25T08:56:12;97094.91;;;15.77;43.74
47374;BME280;33123;50.118;10.272;2023-04-25T08:58:43;97095.56;;;15.69;43.10
47374;BME280;33123;50.118;10.272;2023-04-25T09:01:11;97095.66;;;15.64;42.98
47374;BME280;33123;50.118;10.272;2023-04-25T09:03:39;97099.06;;;15.51;42.40
47374;BME280;33123;50.118;10.272;2023-04-25T09:06:07;97099.16;;;15.46;44.23
47374;BME280;33123;50.118;10.272;2023-04-25T09:08:36;97104.25;;;15.42;43.85
47374;BME280;33123;50.118;10.272;2023-04-25T09:11:03;97105.31;;;15.41;43.78
47374;BME280;33123;50.118;10.272;2023-04-25T09:13:30;97111.25;;;15.52;44.64
47374;BME280;33123;50.118;10.272;2023-04-25T09:15:58;97112.16;;;15.61;44.09
47374;BME280;33123;50.118;10.272;2023-04-25T09:18:27;97110.16;;;15.86;44.71
47374;BME280;33123;50.118;10.272;2023-04-25T09:20:56;97112.22;;;16.02;42.89
47374;BME280;33123;50.118;10.272;2023-04-25T09:23:24;97117.75;;;16.20;43.67
47374;BME280;33123;50.118;10.272;2023-04-25T09:25:52;97118.94;;;16.27;43.14
47374;BME280;33123;50.118;10.272;2023-04-25T09:28:23;97117.78;;;16.70;42.70
47374;BME280;33123;50.118;10.272;2023-04-25T09:30:55;97120.25;;;17.38;43.77
47374;BME280;33123;50.118;10.272;2023-04-25T09:33:27;97122.53;;;18.16;42.14
47374;BME280;33123;50.118;10.272;2023-04-25T09:36:02;97121.09;;;18.67;38.42
47374;BME280;33123;50.118;10.272;2023-04-25T09:38:30;97123.94;;;18.70;37.74
47374;BME280;33123;50.118;10.272;2023-04-25T09:40:57;97134.09;;;18.51;37.82
47374;BME280;33123;50.118;10.272;2023-04-25T09:43:24;97137.72;;;18.15;38.25
47374;BME280;33123;50.118;10.272;2023-04-25T09:45:54;97128.66;;;17.77;39.29
47374;BME280;33123;50.118;10.272;2023-04-25T09:48:23;97133.06;;;17.36;39.61
47374;BME280;33123;50.118;10.272;2023-04-25T09:51:05;97136.56;;;17.01;40.81
47374;BME280;33123;50.118;10.272;2023-04-25T09:53:34;97138.00;;;16.57;40.99
47374;BME280;33123;50.118;10.272;2023-04-25T09:56:03;97099.25;;;16.01;40.57
47374;BME280;33123;50.118;10.272;2023-04-25T09:58:31;97134.50;;;16.06;42.18
47374;BME280;33123;50.118;10.272;2023-04-25T10:00:59;97130.34;;;16.00;42.38
47374;BME280;33123;50.118;10.272;2023-04-25T10:03:29;97126.31;;;16.03;41.06
47374;BME280;33123;50.118;10.272;2023-04-25T10:05:57;97137.34;;;15.96;40.13
47374;BME280;33123;50.118;10.272;2023-04-25T10:08:29;97135.84;;;15.90;40.25
47374;BME280;33123;50.118;10.272;2023-04-25T10:10:59;97132.75;;;15.69;41.25
47374;BME280;33123;50.118;10.272;2023-04-25T10:13:28;97133.41;;;15.61;40.40
47374;BME280;33123;50.118;10.272;2023-04-25T10:15:57;97139.69;;;15.51;40.93
47374;BME280;33123;50.118;10.272;2023-04-25T10:18:25;97137.31;;;15.50;41.21
47374;BME280;33123;50.118;10.272;2023-04-25T10:20:53;97136.72;;;15.53;42.13
47374;BME280;33123;50.118;10.272;2023-04-25T10:23:21;97129.22;;;15.41;39.60
47374;BME280;33123;50.118;10.272;2023-04-25T10:25:49;97127.81;;;15.30;40.64
47374;BME280;33123;50.118;10.272;2023-04-25T10:28:16;97137.34;;;15.31;42.60
47374;BME280;33123;50.118;10.272;2023-04-25T10:30:57;97129.00;;;15.38;41.57
47374;BME280;33123;50.118;10.272;2023-04-25T10:33:30;97136.09;;;15.42;41.14
47374;BME280;33123;50.118;10.272;2023-04-25T10:35:58;97132.75;;;15.37;39.74
47374;BME280;33123;50.118;10.272;2023-04-25T10:38:25;97141.81;;;14.98;39.65
47374;BME280;33123;50.118;10.272;2023-04-25T10:41:10;97142.38;;;15.32;41.32
47374;BME280;33123;50.118;10.272;2023-04-25T10:43:39;97137.31;;;15.50;40.93
47374;BME280;33123;50.118;10.272;2023-04-25T10:46:16;97140.34;;;15.76;40.95
47374;BME280;33123;50.118;10.272;2023-04-25T10:48:45;97133.28;;;15.99;41.36
47374;BME280;33123;50.118;10.272;2023-04-25T10:51:16;97136.53;;;16.37;40.04
47374;BME280;33123;50.118;10.272;2023-04-25T10:53:44;97137.50;;;16.69;39.96
47374;BME280;33123;50.118;10.272;2023-04-25T10:56:16;97142.63;;;16.79;38.55
47374;BME280;33123;50.118;10.272;2023-04-25T10:58:44;97147.47;;;16.77;38.88
47374;BME280;33123;50.118;10.272;2023-04-25T11:01:24;97156.53;;;16.62;39.69
47374;BME280;33123;50.118;10.272;2023-04-25T11:03:57;97162.56;;;16.40;39.16
47374;BME280;33123;50.118;10.272;2023-04-25T11:06:29;97158.94;;;16.22;39.86
47374;BME280;33123;50.118;10.272;2023-04-25T11:09:00;97149.75;;;16.01;40.29
47374;BME280;33123;50.118;10.272;2023-04-25T11:11:29;97161.72;;;15.84;40.65
47374;BME280;33123;50.118;10.272;2023-04-25T11:13:55;97162.59;;;15.66;40.88
47374;BME280;33123;50.118;10.272;2023-04-25T11:16:23;97156.81;;;15.59;41.17
47374;BME280;33123;50.118;10.272;2023-04-25T11:18:50;97161.72;;;15.52;41.19
47374;BME280;33123;50.118;10.272;2023-04-25T11:21:17;97068.69;;;14.92;42.09
47374;BME280;33123;50.118;10.272;2023-04-25T11:23:44;97167.59;;;15.49;40.78
47374;BME280;33123;50.118;10.272;2023-04-25T11:26:12;97151.84;;;15.39;42.32
47374;BME280;33123;50.118;10.272;2023-04-25T11:28:40;97167.78;;;15.39;42.95
47374;BME280;33123;50.118;10.272;2023-04-25T11:31:11;97172.78;;;15.40;43.23
47374;BME280;33123;50.118;10.272;2023-04-25T11:33:37;97173.88;;;15.39;42.48
47374;BME280;33123;50.118;10.272;2023-04-25T11:36:06;97176.00;;;15.37;44.26
47374;BME280;33123;50.118;10.272;2023-04-25T11:38:34;97177.88;;;15.37;42.99
47374;BME280;33123;50.118;10.272;2023-04-25T11:41:01;97181.91;;;15.34;42.67
47374;BME280;33123;50.118;10.272;2023-04-25T11:43:28;97184.88;;;15.32;42.18
47374;BME280;33123;50.118;10.272;2023-04-25T11:45:56;97171.22;;;15.20;41.12
47374;BME280;33123;50.118;10.272;2023-04-25T11:48:23;97180.84;;;15.16;41.93
47374;BME280;33123;50.118;10.272;2023-04-25T11:50:49;97188.91;;;15.11;41.73
47374;BME280;33123;50.118;10.272;2023-04-25T11:53:17;97182.72;;;14.97;42.93
47374;BME280;33123;50.118;10.272;2023-04-25T11:55:44;97184.34;;;14.93;42.46
47374;BME280;33123;50.118;10.272;2023-04-25T11:58:10;97191.09;;;14.85;41.42
47374;BME280;33123;50.118;10.272;2023-04-25T12:00:41;97186.63;;;14.81;41.83
47374;BME280;33123;50.118;10.272;2023-04-25T12:03:09;97190.94;;;14.76;42.26
47374;BME280;33123;50.118;10.272;2023-04-25T12:05:36;97193.09;;;14.74;42.39
47374;BME280;33123;50.118;10.272;2023-04-25T12:08:11;97193.25;;;14.83;42.36
47374;BME280;33123;50.118;10.272;2023-04-25T12:10:39;97195.56;;;14.90;41.88
47374;BME280;33123;50.118;10.272;2023-04-25T12:13:19;97199.78;;;14.91;41.87
47374;BME280;33123;50.118;10.272;2023-04-25T12:15:46;97192.16;;;14.84;41.25
47374;BME280;33123;50.118;10.272;2023-04-25T12:18:18;97196.91;;;14.87;42.24
47374;BME280;33123;50.118;10.272;2023-04-25T12:20:45;97197.13;;;14.91;41.67
47374;BME280;33123;50.118;10.272;2023-04-25T12:23:12;97203.94;;;14.97;42.19
47374;BME280;33123;50.118;10.272;2023-04-25T12:25:40;97198.06;;;15.00;42.70
47374;BME280;33123;50.118;10.272;2023-04-25T12:28:15;97194.69;;;14.94;43.18
47374;BME280;33123;50.118;10.272;2023-04-25T12:30:57;97203.22;;;15.10;41.58
47374;BME280;33123;50.118;10.272;2023-04-25T12:33:26;97187.88;;;15.07;41.85
47374;BME280;33123;50.118;10.272;2023-04-25T12:35:53;97204.81;;;15.11;41.04
47374;BME280;33123;50.118;10.272;2023-04-25T12:38:24;97117.44;;;14.58;41.50
47374;BME280;33123;50.118;10.272;2023-04-25T12:40:51;97210.78;;;15.22;41.43
47374;BME280;33123;50.118;10.272;2023-04-25T12:43:18;97206.25;;;15.22;41.29
47374;BME280;33123;50.118;10.272;2023-04-25T12:45:47;97213.13;;;15.23;40.49
47374;BME280;33123;50.118;10.272;2023-04-25T12:48:14;97208.91;;;15.22;41.26
47374;BME280;33123;50.118;10.272;2023-04-25T12:50:42;97216.88;;;15.22;40.97
47374;BME280;33123;50.118;10.272;2023-04-25T12:53:10;97211.25;;;15.24;42.11